Time;durP1;ratioP1;P1;durP2;ratioP2;P2;SDS_P1;SDS_P2;PMS_P1;PMS_P2;Temp;Humidity;BMP_temperature;BMP_pressure;BME280_temperature;BME280_humidity;BME280_pressure;Samples;Min_cycle;Max_cycle;Signal;HPM_P1;HPM_P2
2021/03/14 00:00:27;;;;;;;3.58;1.20;;;3.70;99.90;;;;;;5092358;28;20240;-84
2021/03/14 00:02:53;;;;;;;1.67;1.40;;;3.80;99.90;;;;;;5098195;28;20318;-83
2021/03/14 00:05:21;;;;;;;1.30;1.02;;;3.70;99.90;;;;;;5110888;28;20194;-84
2021/03/14 00:07:47;;;;;;;3.00;1.10;;;3.80;99.90;;;;;;5110946;28;20198;-84
2021/03/14 00:10:14;;;;;;;1.35;1.25;;;3.90;99.90;;;;;;5115529;28;20530;-84
2021/03/14 00:12:40;;;;;;;1.10;1.00;;;4.00;99.90;;;;;;5110488;28;20202;-83
2021/03/14 00:15:09;;;;;;;2.28;1.10;;;4.00;99.90;;;;;;5111211;28;20194;-85
2021/03/14 00:17:36;;;;;;;1.70;1.10;;;4.10;99.90;;;;;;5112648;28;20191;-83
2021/03/14 00:20:04;;;;;;;1.13;1.02;;;4.00;99.90;;;;;;5114379;28;20228;-84
2021/03/14 00:22:30;;;;;;;1.00;1.00;;;4.20;99.90;;;;;;5111426;28;20255;-84
2021/03/14 00:24:57;;;;;;;0.85;0.85;;;4.10;99.90;;;;;;5112486;28;20202;-84
2021/03/14 00:27:23;;;;;;;5.35;1.20;;;4.20;99.90;;;;;;5093134;28;20190;-84
2021/03/14 00:29:50;;;;;;;3.55;1.10;;;4.20;99.90;;;;;;5111304;28;20193;-83
2021/03/14 00:32:16;;;;;;;1.35;1.10;;;4.10;99.90;;;;;;5095518;28;20675;-83
2021/03/14 00:34:44;;;;;;;1.95;1.80;;;4.00;99.90;;;;;;5109661;28;20239;-83
2021/03/14 00:37:10;;;;;;;1.15;1.05;;;3.90;99.90;;;;;;5110815;28;20658;-82
2021/03/14 00:39:37;;;;;;;2.78;2.58;;;3.80;99.90;;;;;;5096639;28;20659;-82
2021/03/14 00:42:04;;;;;;;0.90;0.90;;;3.60;99.90;;;;;;5100061;28;20671;-82
2021/03/14 00:44:31;;;;;;;1.50;1.02;;;3.80;99.90;;;;;;5091802;28;20222;-82
2021/03/14 00:46:57;;;;;;;2.25;1.10;;;3.80;99.90;;;;;;5110399;28;20217;-82
2021/03/14 00:49:24;;;;;;;1.73;1.60;;;3.80;99.90;;;;;;5092505;28;20226;-82
2021/03/14 00:51:52;;;;;;;1.13;1.05;;;3.60;99.90;;;;;;5095569;28;20254;-82
2021/03/14 00:54:20;;;;;;;1.90;1.00;;;3.40;99.90;;;;;;5094919;28;20222;-83
2021/03/14 00:56:46;;;;;;;1.13;0.88;;;3.40;99.90;;;;;;5092715;28;20194;-82
2021/03/14 00:59:13;;;;;;;1.55;1.05;;;3.30;99.90;;;;;;5096111;28;20548;-82
2021/03/14 01:01:40;;;;;;;1.40;0.88;;;3.40;99.90;;;;;;5101676;28;20194;-83
2021/03/14 01:04:06;;;;;;;0.75;0.75;;;3.40;99.90;;;;;;5108650;28;20202;-84
2021/03/14 01:06:33;;;;;;;1.30;0.80;;;3.40;99.90;;;;;;5107444;28;20209;-83
2021/03/14 01:09:00;;;;;;;1.40;1.30;;;3.40;99.90;;;;;;5095259;28;20194;-83
2021/03/14 01:11:26;;;;;;;6.78;0.80;;;3.60;99.90;;;;;;5091917;28;20206;-84
2021/03/14 01:13:53;;;;;;;0.70;0.70;;;3.40;99.90;;;;;;5097462;28;20194;-84
2021/03/14 01:16:19;;;;;;;0.50;0.50;;;3.40;99.90;;;;;;5112111;28;20724;-83
2021/03/14 01:18:46;;;;;;;0.60;0.60;;;3.30;99.90;;;;;;5101251;28;20246;-83
2021/03/14 01:21:12;;;;;;;0.45;0.45;;;3.50;99.90;;;;;;5113337;28;20248;-84
2021/03/14 01:23:39;;;;;;;0.80;0.80;;;3.30;99.90;;;;;;5111337;28;20318;-84
2021/03/14 01:26:07;;;;;;;1.88;0.70;;;3.40;99.90;;;;;;5099410;28;20260;-84
2021/03/14 01:28:33;;;;;;;0.70;0.70;;;3.40;99.90;;;;;;5099016;28;20695;-84
2021/03/14 01:31:00;;;;;;;0.50;0.50;;;3.50;99.90;;;;;;5096940;28;20193;-83
2021/03/14 01:33:27;;;;;;;0.65;0.63;;;3.70;99.90;;;;;;5101159;28;20195;-84
2021/03/14 01:35:54;;;;;;;0.80;0.80;;;3.50;99.90;;;;;;5089871;28;20206;-84
2021/03/14 01:38:20;;;;;;;1.15;1.05;;;3.60;99.90;;;;;;5094763;28;20186;-84
2021/03/14 01:40:47;;;;;;;2.95;1.40;;;3.50;99.90;;;;;;5090816;28;20206;-84
2021/03/14 01:43:14;;;;;;;1.00;0.90;;;3.60;99.90;;;;;;5108840;28;20226;-84
2021/03/14 01:45:41;;;;;;;1.58;0.90;;;3.50;99.90;;;;;;5110240;28;20659;-84
2021/03/14 01:48:09;;;;;;;0.70;0.70;;;3.50;99.90;;;;;;5105777;28;20186;-84
2021/03/14 01:50:37;;;;;;;0.70;0.70;;;3.50;99.90;;;;;;5107107;28;20194;-84
2021/03/14 01:53:04;;;;;;;0.68;0.50;;;3.70;99.90;;;;;;5107755;28;20985;-84
2021/03/14 01:55:30;;;;;;;0.75;0.75;;;3.80;99.90;;;;;;5111464;28;20251;-84
2021/03/14 01:57:57;;;;;;;0.70;0.70;;;3.50;99.90;;;;;;5095212;28;20189;-84
2021/03/14 02:00:26;;;;;;;0.50;0.50;;;3.40;99.90;;;;;;5106999;28;20190;-84
2021/03/14 02:02:54;;;;;;;0.70;0.70;;;3.40;99.90;;;;;;5109437;28;20324;-84
2021/03/14 02:05:22;;;;;;;0.50;0.50;;;3.40;99.90;;;;;;5110158;28;20190;-83
2021/03/14 02:07:51;;;;;;;0.50;0.45;;;3.40;99.90;;;;;;5107334;28;20194;-84
2021/03/14 02:10:25;;;;;;;0.80;0.80;;;3.30;99.90;;;;;;5106403;28;20197;-84
2021/03/14 02:12:59;;;;;;;0.52;0.52;;;3.10;99.90;;;;;;5102568;28;20207;-84
2021/03/14 02:15:29;;;;;;;0.73;0.73;;;3.00;99.90;;;;;;5100233;28;20597;-84
2021/03/14 02:17:59;;;;;;;0.40;0.40;;;3.00;99.90;;;;;;5098048;28;20727;-84
2021/03/14 02:20:29;;;;;;;0.57;0.57;;;2.90;99.90;;;;;;5095657;28;20225;-84
2021/03/14 02:23:07;;;;;;;0.60;0.60;;;2.90;99.90;;;;;;5098314;28;20214;-84
2021/03/14 02:25:44;;;;;;;1.40;0.68;;;2.80;99.90;;;;;;5112235;28;20212;-84
2021/03/14 02:28:15;;;;;;;1.58;0.63;;;2.80;99.90;;;;;;5112408;28;20186;-84
2021/03/14 02:30:45;;;;;;;0.70;0.57;;;2.80;99.90;;;;;;5094099;28;20683;-84
2021/03/14 02:33:17;;;;;;;0.90;0.50;;;2.80;99.90;;;;;;5112005;28;20209;-84
2021/03/14 02:35:46;;;;;;;0.70;0.70;;;2.70;99.90;;;;;;5095048;28;20198;-84
2021/03/14 02:38:15;;;;;;;0.60;0.50;;;2.70;99.90;;;;;;5096980;28;20219;-83
2021/03/14 02:40:42;;;;;;;0.68;0.65;;;2.70;99.90;;;;;;5110573;28;20210;-84
2021/03/14 02:43:10;;;;;;;0.93;0.80;;;2.70;99.90;;;;;;5106109;28;20687;-83
2021/03/14 02:45:40;;;;;;;1.00;1.00;;;2.80;99.90;;;;;;5094760;28;20267;-83
2021/03/14 02:48:08;;;;;;;1.58;1.38;;;2.80;99.90;;;;;;5108836;28;20235;-84
2021/03/14 02:50:37;;;;;;;2.60;2.40;;;2.80;99.90;;;;;;5113443;28;20202;-83
2021/03/14 02:53:06;;;;;;;1.98;1.52;;;2.70;99.90;;;;;;5096506;28;20286;-85
2021/03/14 02:55:34;;;;;;;2.22;1.42;;;2.80;99.90;;;;;;5112374;28;20560;-84
2021/03/14 02:58:02;;;;;;;5.30;3.40;;;2.80;99.90;;;;;;5114035;28;20198;-83
2021/03/14 03:00:32;;;;;;;1.45;1.10;;;2.80;99.90;;;;;;5111234;28;20197;-84
2021/03/14 03:03:03;;;;;;;2.55;1.00;;;2.80;99.90;;;;;;5104853;28;20229;-84
2021/03/14 03:05:31;;;;;;;1.40;1.20;;;2.80;99.90;;;;;;5113947;28;20201;-84
2021/03/14 03:08:00;;;;;;;0.70;0.70;;;2.90;99.90;;;;;;5107059;28;20190;-83
2021/03/14 03:10:30;;;;;;;0.77;0.77;;;3.00;99.90;;;;;;5093277;28;20816;-84
2021/03/14 03:13:05;;;;;;;2.45;1.23;;;2.90;99.90;;;;;;5103273;28;20243;-84
2021/03/14 03:15:33;;;;;;;0.82;0.82;;;2.80;99.90;;;;;;5126725;27;20678;-85
2021/03/14 03:18:02;;;;;;;1.02;0.80;;;2.70;99.90;;;;;;5100579;28;20195;-84
2021/03/14 03:20:29;;;;;;;0.82;0.80;;;2.70;99.90;;;;;;5101966;28;20268;-83
2021/03/14 03:22:59;;;;;;;0.85;0.85;;;2.80;99.90;;;;;;5093680;28;20206;-83
2021/03/14 03:25:25;;;;;;;0.70;0.70;;;2.90;99.90;;;;;;5093048;28;20193;-84
2021/03/14 03:27:52;;;;;;;2.05;1.25;;;3.00;99.90;;;;;;5098408;28;20197;-83
2021/03/14 03:30:21;;;;;;;0.80;0.80;;;2.90;99.90;;;;;;5092708;28;20221;-84
2021/03/14 03:32:48;;;;;;;0.60;0.60;;;3.00;99.90;;;;;;5093371;28;20187;-84
2021/03/14 03:35:17;;;;;;;0.93;0.93;;;2.80;99.90;;;;;;5093027;28;20206;-84
2021/03/14 03:37:44;;;;;;;1.08;1.05;;;2.80;99.90;;;;;;5098869;28;20182;-84
2021/03/14 03:40:13;;;;;;;0.77;0.77;;;2.80;99.90;;;;;;5095845;28;20217;-84
2021/03/14 03:42:48;;;;;;;1.00;0.88;;;2.80;99.90;;;;;;5104377;28;20342;-83
2021/03/14 03:45:16;;;;;;;0.80;0.80;;;2.90;99.90;;;;;;5092569;28;20284;-84
2021/03/14 03:47:43;;;;;;;0.75;0.70;;;2.90;99.90;;;;;;5106585;28;20194;-84
2021/03/14 03:50:12;;;;;;;1.20;1.13;;;3.00;99.90;;;;;;5092215;28;20191;-84
2021/03/14 03:52:40;;;;;;;2.72;2.53;;;3.10;99.90;;;;;;5110931;28;20209;-84
2021/03/14 03:55:09;;;;;;;1.38;1.27;;;3.00;99.90;;;;;;5107174;28;20201;-84
2021/03/14 03:57:37;;;;;;;2.35;1.50;;;3.20;99.90;;;;;;5097417;28;20229;-84
2021/03/14 04:00:07;;;;;;;2.55;2.28;;;3.10;99.90;;;;;;5104174;28;20198;-84
2021/03/14 04:02:35;;;;;;;1.70;1.60;;;3.00;99.90;;;;;;5094655;28;20249;-83
2021/03/14 04:05:07;;;;;;;2.10;1.50;;;2.90;99.90;;;;;;5111786;28;20209;-83
2021/03/14 04:07:36;;;;;;;1.45;1.35;;;3.00;99.90;;;;;;5095674;28;20201;-84
2021/03/14 04:10:07;;;;;;;2.05;1.20;;;2.90;99.90;;;;;;5105080;28;20207;-84
2021/03/14 04:12:35;;;;;;;1.65;1.55;;;3.00;99.90;;;;;;5095643;28;20546;-84
2021/03/14 04:15:02;;;;;;;2.25;2.05;;;3.20;99.90;;;;;;5111571;28;20198;-84
2021/03/14 04:17:30;;;;;;;1.52;1.42;;;3.10;99.90;;;;;;5110754;28;20277;-85
2021/03/14 04:20:00;;;;;;;1.20;1.10;;;3.10;99.90;;;;;;5091486;28;20194;-85
2021/03/14 04:22:29;;;;;;;1.27;1.20;;;3.10;99.90;;;;;;5091852;28;20234;-83
2021/03/14 04:24:58;;;;;;;1.25;1.15;;;3.00;99.90;;;;;;5111476;28;20197;-84
2021/03/14 04:27:27;;;;;;;1.50;1.40;;;3.10;99.90;;;;;;5093878;28;20191;-83
2021/03/14 04:29:55;;;;;;;2.83;1.67;;;2.90;99.90;;;;;;5097325;28;20256;-83
2021/03/14 04:32:24;;;;;;;1.70;1.33;;;3.00;99.90;;;;;;5093406;28;20293;-84
2021/03/14 04:34:52;;;;;;;1.50;1.40;;;3.10;99.90;;;;;;5097664;28;20265;-83
2021/03/14 04:37:21;;;;;;;2.00;1.80;;;3.10;99.90;;;;;;5092659;28;20209;-83
2021/03/14 04:39:49;;;;;;;2.63;1.30;;;3.10;99.90;;;;;;5110328;28;20605;-83
2021/03/14 04:42:18;;;;;;;1.80;1.70;;;3.20;99.90;;;;;;5100353;28;20582;-83
2021/03/14 04:44:47;;;;;;;1.90;1.75;;;3.10;99.90;;;;;;5111000;28;20263;-83
2021/03/14 04:47:17;;;;;;;1.50;1.40;;;3.00;99.90;;;;;;5108931;28;20198;-84
2021/03/14 04:49:44;;;;;;;1.58;1.40;;;2.80;99.90;;;;;;5093643;28;20478;-84
2021/03/14 04:52:19;;;;;;;1.65;1.50;;;2.70;99.90;;;;;;5100440;28;20194;-83
2021/03/14 04:54:50;;;;;;;1.70;1.30;;;2.70;99.90;;;;;;5093426;28;20229;-84
2021/03/14 04:57:20;;;;;;;2.15;1.70;;;2.70;99.90;;;;;;5102717;28;20246;-83
2021/03/14 04:59:49;;;;;;;1.75;1.45;;;2.50;99.90;;;;;;5094311;28;20199;-83
2021/03/14 05:02:18;;;;;;;1.00;1.00;;;2.40;99.90;;;;;;5101833;28;20742;-84
2021/03/14 05:04:49;;;;;;;1.23;1.08;;;2.40;99.90;;;;;;5093501;28;20195;-83
2021/03/14 05:07:16;;;;;;;1.88;1.77;;;2.50;99.90;;;;;;5104485;28;20543;-84
2021/03/14 05:09:44;;;;;;;2.00;1.70;;;2.50;99.90;;;;;;5092220;28;20232;-84
2021/03/14 05:12:12;;;;;;;0.98;0.98;;;2.40;99.90;;;;;;5090613;28;20190;-83
2021/03/14 05:14:40;;;;;;;1.92;1.42;;;2.40;99.90;;;;;;5105292;28;20201;-84
2021/03/14 05:17:08;;;;;;;2.80;2.22;;;2.40;99.90;;;;;;5111646;28;20670;-84
2021/03/14 05:19:35;;;;;;;0.95;0.95;;;2.30;99.90;;;;;;5100722;28;20214;-84
2021/03/14 05:22:03;;;;;;;1.85;1.60;;;2.20;99.90;;;;;;5109638;28;20230;-84
2021/03/14 05:24:31;;;;;;;1.38;1.20;;;2.30;99.90;;;;;;5092579;28;20277;-84
2021/03/14 05:27:00;;;;;;;1.70;0.73;;;2.20;99.90;;;;;;5091500;28;20193;-84
2021/03/14 05:29:27;;;;;;;2.65;1.30;;;2.20;99.90;;;;;;5106504;28;20190;-84
2021/03/14 05:31:56;;;;;;;0.90;0.90;;;2.20;99.90;;;;;;5111574;28;20186;-84
2021/03/14 05:34:25;;;;;;;5.30;0.80;;;2.20;99.90;;;;;;5105857;28;20263;-85
2021/03/14 05:36:53;;;;;;;0.73;0.73;;;2.10;99.90;;;;;;5094767;28;20210;-82
2021/03/14 05:39:21;;;;;;;1.05;0.80;;;2.20;99.90;;;;;;5103189;28;20205;-85
2021/03/14 05:41:49;;;;;;;0.90;0.90;;;2.20;99.90;;;;;;5111368;28;20327;-84
2021/03/14 05:44:16;;;;;;;1.23;1.02;;;2.10;99.90;;;;;;5093118;28;20245;-84
2021/03/14 05:46:44;;;;;;;0.90;0.90;;;2.10;99.90;;;;;;5091440;28;20289;-84
2021/03/14 05:49:11;;;;;;;1.35;1.15;;;2.20;99.90;;;;;;5100288;28;20200;-85
2021/03/14 05:51:42;;;;;;;2.97;1.10;;;2.30;99.90;;;;;;5110557;28;20251;-84
2021/03/14 05:54:12;;;;;;;1.25;0.98;;;2.30;99.90;;;;;;5108830;28;20194;-83
2021/03/14 05:56:43;;;;;;;2.30;0.98;;;2.30;99.90;;;;;;5111363;28;20220;-83
2021/03/14 05:59:12;;;;;;;1.10;1.05;;;2.40;99.90;;;;;;5109980;28;20193;-84
2021/03/14 06:01:40;;;;;;;1.05;1.00;;;2.50;99.90;;;;;;5108312;28;20190;-84
2021/03/14 06:04:11;;;;;;;2.97;1.30;;;2.50;99.90;;;;;;5096434;28;20210;-84
2021/03/14 06:06:38;;;;;;;1.10;1.10;;;2.50;99.90;;;;;;5110086;28;20201;-84
2021/03/14 06:09:06;;;;;;;1.50;1.20;;;2.60;99.90;;;;;;5098915;28;20199;-84
2021/03/14 06:11:34;;;;;;;0.93;0.93;;;2.70;99.90;;;;;;5090631;28;20210;-83
2021/03/14 06:14:01;;;;;;;1.45;1.25;;;2.80;99.90;;;;;;5097411;28;20197;-83
2021/03/14 06:16:29;;;;;;;1.90;1.67;;;2.90;99.90;;;;;;5095661;28;20682;-84
2021/03/14 06:18:59;;;;;;;4.20;2.00;;;3.00;99.90;;;;;;5098756;28;20281;-83
2021/03/14 06:21:28;;;;;;;3.00;1.70;;;3.00;99.90;;;;;;5091665;28;20199;-84
2021/03/14 06:23:57;;;;;;;1.75;1.65;;;3.10;99.90;;;;;;5090298;28;20218;-83
2021/03/14 06:26:37;;;;;;;3.15;1.90;;;3.20;99.90;;;;;;5092466;28;20186;-84
2021/03/14 06:29:25;;;;;;;2.47;1.85;;;3.10;99.90;;;;;;5096711;28;20202;-84
2021/03/14 06:31:57;;;;;;;3.38;1.70;;;3.10;99.90;;;;;;5110561;28;20205;-83
2021/03/14 06:34:28;;;;;;;1.60;1.40;;;3.00;99.90;;;;;;5095917;28;20225;-84
2021/03/14 06:36:55;;;;;;;2.50;1.73;;;3.10;99.90;;;;;;5091064;28;20199;-83
2021/03/14 06:39:24;;;;;;;1.45;1.35;;;3.00;99.90;;;;;;5103077;28;20182;-83
2021/03/14 06:41:52;;;;;;;1.58;1.48;;;3.00;99.90;;;;;;5102125;28;20191;-83
2021/03/14 06:44:27;;;;;;;1.42;1.33;;;2.90;99.90;;;;;;5109328;28;20218;-83
2021/03/14 06:46:54;;;;;;;2.10;2.00;;;2.90;99.90;;;;;;5104589;28;20190;-84
2021/03/14 06:49:22;;;;;;;4.63;1.90;;;2.90;99.90;;;;;;5102165;28;20201;-83
2021/03/14 06:51:50;;;;;;;4.05;2.10;;;2.80;99.90;;;;;;5105627;28;20548;-84
2021/03/14 06:54:35;;;;;;;6.22;1.90;;;2.90;99.90;;;;;;5090452;28;20197;-84
2021/03/14 06:57:08;;;;;;;1.52;1.42;;;3.00;99.90;;;;;;5091555;28;20217;-83
2021/03/14 06:59:36;;;;;;;4.18;2.25;;;3.00;99.90;;;;;;5098334;28;20191;-84
2021/03/14 07:02:08;;;;;;;2.00;1.58;;;3.00;99.90;;;;;;5090077;28;20581;-83
2021/03/14 07:04:37;;;;;;;2.67;2.28;;;2.90;99.90;;;;;;5091435;28;20195;-84
2021/03/14 07:07:05;;;;;;;2.63;2.22;;;2.80;99.90;;;;;;5094288;28;20203;-83
2021/03/14 07:09:34;;;;;;;3.20;1.90;;;2.70;99.90;;;;;;5106251;28;20335;-85
2021/03/14 07:12:01;;;;;;;3.50;1.95;;;2.90;99.90;;;;;;5107940;28;20218;-85
2021/03/14 07:14:28;;;;;;;1.80;1.70;;;2.80;99.90;;;;;;5103193;28;20225;-85
2021/03/14 07:16:56;;;;;;;2.13;1.83;;;2.90;99.90;;;;;;5113036;28;20186;-85
2021/03/14 07:19:24;;;;;;;2.47;2.13;;;3.00;99.90;;;;;;5099583;28;20194;-85
2021/03/14 07:22:12;;;;;;;1.85;1.75;;;3.20;99.90;;;;;;5101706;28;20200;-85
2021/03/14 07:24:40;;;;;;;2.10;1.67;;;3.30;99.90;;;;;;5100794;28;20655;-86
2021/03/14 07:27:08;;;;;;;5.30;1.70;;;3.40;99.90;;;;;;5094647;28;20205;-85
2021/03/14 07:29:36;;;;;;;2.45;1.80;;;3.50;99.90;;;;;;5106029;28;20193;-85
2021/03/14 07:32:04;;;;;;;1.92;1.58;;;3.50;99.90;;;;;;5106938;28;20190;-86
2021/03/14 07:34:31;;;;;;;2.25;2.00;;;3.60;99.90;;;;;;5095948;28;20239;-85
2021/03/14 07:36:57;;;;;;;2.47;1.75;;;3.90;99.90;;;;;;5097657;28;20186;-85
2021/03/14 07:39:24;;;;;;;4.40;2.20;;;4.10;99.90;;;;;;5111602;28;20239;-85
2021/03/14 07:41:51;;;;;;;3.35;1.77;;;4.20;98.90;;;;;;5109302;27;20194;-85
2021/03/14 07:44:19;;;;;;;5.20;1.52;;;4.70;99.70;;;;;;5093154;28;20257;-85
2021/03/14 07:46:47;;;;;;;3.70;2.35;;;4.70;97.90;;;;;;5104916;28;20686;-85
2021/03/14 07:49:15;;;;;;;3.55;1.83;;;4.60;97.90;;;;;;5099097;28;20183;-85
2021/03/14 07:51:46;;;;;;;5.63;1.83;;;4.30;97.30;;;;;;5098856;28;20232;-85
2021/03/14 07:54:20;;;;;;;2.20;1.55;;;4.10;97.60;;;;;;5101568;28;20191;-86
2021/03/14 07:56:47;;;;;;;2.38;2.00;;;4.10;98.20;;;;;;5092806;28;20190;-85
2021/03/14 07:59:24;;;;;;;1.70;1.48;;;3.90;97.30;;;;;;5107715;28;20194;-86
2021/03/14 08:01:51;;;;;;;1.60;1.50;;;3.90;97.90;;;;;;5109068;28;20216;-85
2021/03/14 08:04:31;;;;;;;4.95;1.98;;;3.90;97.80;;;;;;5108985;28;20249;-85
2021/03/14 08:06:59;;;;;;;4.22;1.70;;;3.90;98.30;;;;;;5107108;28;20894;-87
2021/03/14 08:09:43;;;;;;;3.85;2.10;;;4.30;98.60;;;;;;5106610;28;20205;-86
2021/03/14 08:12:22;;;;;;;4.35;2.30;;;4.50;98.30;;;;;;5109788;28;20186;-85
2021/03/14 08:14:51;;;;;;;5.90;1.70;;;4.60;97.80;;;;;;5112139;28;20338;-85
2021/03/14 08:17:20;;;;;;;2.28;2.08;;;4.60;97.10;;;;;;5112667;28;20820;-85
2021/03/14 08:19:48;;;;;;;1.42;1.33;;;4.60;97.20;;;;;;5111125;28;20194;-85
2021/03/14 08:22:49;;;;;;;1.58;1.48;;;4.70;97.10;;;;;;5112938;28;20202;-84
2021/03/14 08:25:29;;;;;;;3.35;2.05;;;4.70;97.10;;;;;;5099136;28;20221;-84
2021/03/14 08:27:58;;;;;;;1.73;1.63;;;4.50;96.60;;;;;;5104598;28;20221;-84
2021/03/14 08:30:48;;;;;;;2.95;2.30;;;4.60;96.90;;;;;;5092196;28;20190;-84
2021/03/14 08:33:40;;;;;;;2.50;1.80;;;4.30;96.80;;;;;;5106631;28;20199;-87
2021/03/14 08:36:08;;;;;;;3.08;1.73;;;4.50;97.50;;;;;;5112317;28;20655;-87
2021/03/14 08:41:50;;;;;;;1.88;1.70;;;4.80;96.90;;;;;;5107810;28;20221;-86
2021/03/14 08:44:32;;;;;;;3.72;2.35;;;4.90;97.00;;;;;;5097970;28;20214;-87
2021/03/14 08:47:00;;;;;;;4.25;2.35;;;5.20;96.60;;;;;;5112689;28;20190;-86
2021/03/14 08:49:30;;;;;;;2.55;1.80;;;5.00;95.70;;;;;;5099686;28;20197;-86
2021/03/14 08:51:57;;;;;;;2.72;2.00;;;5.00;95.60;;;;;;5106060;28;20187;-87
2021/03/14 08:54:26;;;;;;;2.67;1.33;;;4.70;94.50;;;;;;5109013;28;20186;-86
2021/03/14 08:56:55;;;;;;;2.40;1.75;;;4.80;95.70;;;;;;5102995;28;20248;-87
2021/03/14 08:59:22;;;;;;;2.10;1.55;;;4.90;95.70;;;;;;5104418;28;20247;-86
2021/03/14 09:01:52;;;;;;;1.75;1.30;;;5.40;95.40;;;;;;5109838;28;20729;-86
2021/03/14 09:04:20;;;;;;;1.98;1.20;;;5.40;94.40;;;;;;5103525;28;20618;-86
2021/03/14 09:06:49;;;;;;;1.70;1.60;;;5.50;94.70;;;;;;5109501;28;20182;-86
2021/03/14 09:09:18;;;;;;;5.22;1.20;;;5.40;94.90;;;;;;5106862;28;20205;-87
2021/03/14 09:11:47;;;;;;;4.85;1.95;;;5.40;94.20;;;;;;5104410;28;20232;-87
2021/03/14 09:14:29;;;;;;;4.53;1.98;;;5.30;93.80;;;;;;5110117;28;20249;-86
2021/03/14 09:16:57;;;;;;;1.73;1.55;;;5.10;94.30;;;;;;5094771;28;20205;-86
2021/03/14 09:19:29;;;;;;;1.83;1.27;;;5.20;94.60;;;;;;5097637;28;20186;-87
2021/03/14 09:21:58;;;;;;;3.22;1.30;;;5.20;94.40;;;;;;5096235;28;20190;-86
2021/03/14 09:24:26;;;;;;;1.85;1.40;;;5.00;94.40;;;;;;5108899;28;20236;-86
2021/03/14 09:26:57;;;;;;;2.30;1.88;;;5.10;94.80;;;;;;5099274;28;20213;-86
2021/03/14 09:29:55;;;;;;;1.98;1.45;;;5.30;95.30;;;;;;5094842;28;20191;-86
2021/03/14 09:32:43;;;;;;;2.58;1.40;;;5.50;94.70;;;;;;5068623;28;20196;-86
2021/03/14 09:35:19;;;;;;;1.63;1.25;;;5.50;94.30;;;;;;5100606;28;20685;-86
2021/03/14 09:37:48;;;;;;;1.80;1.10;;;5.70;94.00;;;;;;5095043;28;20217;-86
2021/03/14 09:40:23;;;;;;;1.65;1.55;;;5.60;93.30;;;;;;5106833;28;20235;-86
2021/03/14 09:42:52;;;;;;;5.53;1.20;;;5.70;93.60;;;;;;5093100;28;20213;-86
2021/03/14 09:45:20;;;;;;;1.02;0.93;;;5.50;93.50;;;;;;5111283;28;20186;-85
2021/03/14 09:48:07;;;;;;;1.95;1.35;;;5.70;94.20;;;;;;5106505;28;20188;-85
2021/03/14 09:50:50;;;;;;;4.97;1.40;;;5.90;93.70;;;;;;5091118;28;20186;-85
2021/03/14 09:53:19;;;;;;;1.40;1.20;;;6.20;93.90;;;;;;5094458;28;20243;-85
2021/03/14 09:55:47;;;;;;;3.15;1.08;;;6.50;92.50;;;;;;5110931;28;20662;-85
2021/03/14 09:58:15;;;;;;;3.97;1.30;;;6.80;92.20;;;;;;5095607;28;20189;-86
2021/03/14 10:00:43;;;;;;;1.88;0.93;;;6.60;90.10;;;;;;5111227;28;20214;-85
2021/03/14 10:03:11;;;;;;;1.95;1.25;;;6.50;90.60;;;;;;5096593;28;20256;-86
2021/03/14 10:05:43;;;;;;;5.13;1.60;;;6.40;90.10;;;;;;5093760;28;20195;-87
2021/03/14 10:08:11;;;;;;;1.02;1.02;;;6.20;90.20;;;;;;5098773;28;20254;-87
2021/03/14 10:10:39;;;;;;;2.15;0.95;;;6.40;91.00;;;;;;5109183;28;20212;-86
2021/03/14 10:13:09;;;;;;;1.90;1.00;;;6.40;90.60;;;;;;5100699;28;20206;-86
2021/03/14 10:15:36;;;;;;;1.30;0.90;;;6.50;89.50;;;;;;5109418;28;20206;-88
2021/03/14 10:18:05;;;;;;;2.35;1.25;;;6.30;90.30;;;;;;5110105;28;20269;-87
2021/03/14 10:20:32;;;;;;;2.47;1.45;;;5.90;89.90;;;;;;5090663;28;20202;-86
2021/03/14 10:23:00;;;;;;;2.65;1.60;;;6.00;90.50;;;;;;5091248;28;20217;-86
2021/03/14 10:25:28;;;;;;;1.50;1.13;;;6.00;89.80;;;;;;5107378;28;20216;-86
2021/03/14 10:28:07;;;;;;;3.13;2.08;;;5.80;88.20;;;;;;5112787;28;20189;-85
2021/03/14 10:30:34;;;;;;;3.25;2.10;;;6.10;90.10;;;;;;5110631;28;20198;-87
2021/03/14 10:33:04;;;;;;;2.35;1.05;;;6.00;89.10;;;;;;5100669;28;20236;-86
2021/03/14 10:35:30;;;;;;;1.00;1.00;;;5.90;89.10;;;;;;5099657;28;20210;-86
2021/03/14 10:37:57;;;;;;;1.67;0.80;;;6.00;90.20;;;;;;5107432;28;20197;-86
2021/03/14 10:40:26;;;;;;;1.52;1.27;;;6.00;87.70;;;;;;5092986;28;20206;-86
2021/03/14 10:42:53;;;;;;;2.10;1.00;;;6.00;90.20;;;;;;5105471;28;20294;-87
2021/03/14 10:45:22;;;;;;;2.25;1.02;;;6.00;88.40;;;;;;5095431;28;20283;-87
2021/03/14 10:48:00;;;;;;;4.55;1.77;;;5.90;88.00;;;;;;5103855;28;20272;-87
2021/03/14 10:50:33;;;;;;;4.50;1.67;;;6.00;90.20;;;;;;5105053;28;20197;-86
2021/03/14 10:53:12;;;;;;;2.25;0.80;;;5.80;90.30;;;;;;5096858;28;20206;-85
2021/03/14 10:55:45;;;;;;;1.30;1.10;;;5.80;90.80;;;;;;5095761;28;20198;-87
2021/03/14 10:58:14;;;;;;;5.00;1.50;;;5.90;90.10;;;;;;5097337;28;20197;-86
2021/03/14 11:00:44;;;;;;;1.50;1.00;;;6.00;90.60;;;;;;5114529;28;20267;-86
2021/03/14 11:03:32;;;;;;;2.22;1.42;;;6.10;90.70;;;;;;5097244;28;20269;-86
2021/03/14 11:06:19;;;;;;;5.25;1.38;;;6.10;90.80;;;;;;5095390;28;20202;-87
2021/03/14 11:08:56;;;;;;;1.83;1.27;;;6.30;90.60;;;;;;5099588;28;20593;-86
2021/03/14 11:12:03;;;;;;;0.90;0.90;;;6.40;89.10;;;;;;5115580;28;20668;-87
2021/03/14 11:14:36;;;;;;;1.20;1.08;;;6.40;88.10;;;;;;5100250;28;20205;-86
2021/03/14 11:17:52;;;;;;;1.42;1.02;;;6.30;86.90;;;;;;5095926;28;20191;-87
2021/03/14 11:24:46;;;;;;;;;;;;;;;;;;;;;
2021/03/14 11:32:09;;;;;;;;;;;;;;;;;;;;;
2021/03/14 11:38:26;;;;;;;1.27;1.08;;;6.80;79.50;;;;;;5089663;28;20214;-86
2021/03/14 11:40:56;;;;;;;4.47;2.58;;;7.00;75.60;;;;;;5113387;28;20202;-86
2021/03/14 11:43:22;;;;;;;2.50;1.80;;;7.20;77.30;;;;;;5107508;28;20798;-86
2021/03/14 11:45:51;;;;;;;4.18;2.17;;;6.90;76.20;;;;;;5113259;28;20618;-85
2021/03/14 11:48:17;;;;;;;1.98;1.20;;;6.80;78.20;;;;;;5110870;28;20178;-87
2021/03/14 11:50:44;;;;;;;7.63;1.33;;;7.00;78.20;;;;;;5112676;28;20687;-86
2021/03/14 11:53:10;;;;;;;1.45;1.27;;;7.20;78.60;;;;;;5106459;28;20202;-86
2021/03/14 11:56:01;;;;;;;1.98;0.98;;;7.20;76.40;;;;;;5098269;28;20588;-87
2021/03/14 11:58:29;;;;;;;1.35;0.95;;;7.00;74.70;;;;;;5104970;28;20221;-88
2021/03/14 12:00:56;;;;;;;1.40;0.90;;;6.90;77.20;;;;;;5099770;28;20197;-87
2021/03/14 12:07:25;;;;;;;1.33;0.95;;;6.60;76.30;;;;;;5107820;28;20243;-87
2021/03/14 12:10:40;;;;;;;1.25;1.10;;;6.20;76.50;;;;;;5114700;28;20250;-88
2021/03/14 12:13:17;;;;;;;0.98;0.90;;;6.20;77.80;;;;;;5103533;28;20211;-88
2021/03/14 12:19:13;;;;;;;1.33;0.80;;;6.20;83.80;;;;;;5140432;27;20733;-86
2021/03/14 12:21:39;;;;;;;1.15;1.05;;;6.10;86.10;;;;;;5106786;28;20190;-86
2021/03/14 12:24:06;;;;;;;1.33;1.23;;;5.60;87.70;;;;;;5106701;28;20198;-86
2021/03/14 12:26:33;;;;;;;2.60;1.30;;;5.60;90.10;;;;;;5109644;28;20194;-88
2021/03/14 12:29:01;;;;;;;1.00;1.00;;;5.40;91.10;;;;;;5099062;28;20202;-86
2021/03/14 12:31:28;;;;;;;1.50;1.10;;;5.70;92.10;;;;;;5103837;28;20235;-87
2021/03/14 12:33:54;;;;;;;1.40;1.27;;;5.60;92.00;;;;;;5107137;28;20194;-87
2021/03/14 12:36:22;;;;;;;5.18;1.30;;;5.20;91.90;;;;;;5107649;28;20227;-87
2021/03/14 12:38:49;;;;;;;2.88;1.63;;;5.20;93.50;;;;;;5107374;28;20214;-87
2021/03/14 12:41:15;;;;;;;3.10;1.67;;;5.00;94.50;;;;;;5107329;28;20194;-87
2021/03/14 12:43:42;;;;;;;2.85;1.55;;;4.70;95.70;;;;;;5107515;28;20178;-87
2021/03/14 12:46:08;;;;;;;1.88;1.65;;;4.90;96.70;;;;;;5106872;28;20198;-87
2021/03/14 12:48:35;;;;;;;3.20;2.22;;;4.90;97.10;;;;;;5107154;28;20216;-86
2021/03/14 12:51:02;;;;;;;2.28;1.70;;;4.80;96.80;;;;;;5107210;28;20728;-87
2021/03/14 12:53:30;;;;;;;2.28;1.73;;;4.80;98.00;;;;;;5106491;28;20194;-87
2021/03/14 12:55:56;;;;;;;3.30;1.65;;;4.90;98.90;;;;;;5107351;28;20206;-87
2021/03/14 12:58:23;;;;;;;3.30;2.00;;;5.00;98.90;;;;;;5106478;28;20210;-87
2021/03/14 13:00:49;;;;;;;3.55;1.80;;;4.80;98.60;;;;;;5106947;28;20686;-87
2021/03/14 13:03:16;;;;;;;4.68;1.63;;;4.70;98.40;;;;;;5106530;28;20190;-86
2021/03/14 13:05:42;;;;;;;5.20;2.00;;;5.10;99.40;;;;;;5110295;28;20202;-87
2021/03/14 13:08:09;;;;;;;4.60;2.25;;;5.40;99.10;;;;;;5108106;28;20194;-87
2021/03/14 13:10:37;;;;;;;3.13;2.20;;;5.50;98.70;;;;;;5107071;28;20723;-87
2021/03/14 13:13:04;;;;;;;2.80;2.20;;;5.60;98.60;;;;;;5106698;28;20197;-88
2021/03/14 13:15:32;;;;;;;4.22;1.80;;;5.60;98.50;;;;;;5106351;28;20247;-88
2021/03/14 13:17:58;;;;;;;2.70;1.70;;;5.70;98.50;;;;;;5102136;28;20586;-87
2021/03/14 13:20:25;;;;;;;1.45;1.33;;;6.00;98.60;;;;;;5107053;28;20213;-87
2021/03/14 13:22:52;;;;;;;2.40;1.83;;;6.20;98.20;;;;;;5106014;28;20201;-87
2021/03/14 13:25:18;;;;;;;2.53;1.65;;;6.40;97.80;;;;;;5107167;28;20186;-87
2021/03/14 13:27:47;;;;;;;5.72;2.40;;;6.50;97.40;;;;;;5106001;28;20190;-87
2021/03/14 13:30:15;;;;;;;3.53;1.75;;;6.60;96.80;;;;;;5094965;28;20575;-87
2021/03/14 13:32:42;;;;;;;3.17;1.92;;;6.80;96.60;;;;;;5092807;28;20191;-88
2021/03/14 13:35:09;;;;;;;1.98;1.85;;;7.20;96.30;;;;;;5093031;28;20198;-88
2021/03/14 13:37:38;;;;;;;2.95;2.05;;;7.30;95.90;;;;;;5092445;28;20210;-88